Time;durP1;ratioP1;P1;durP2;ratioP2;P2;SDS_P1;SDS_P2;PMS_P1;PMS_P2;Temp;Humidity;BMP_temperature;BMP_pressure;BME280_temperature;BME280_humidity;BME280_pressure;Samples;Min_cycle;Max_cycle;Signal;HPM_P1;HPM_P2
2022/04/26 03:38:11;;;;;;;15.17;11.23;;;;;5.70;93574.00;;;;7387659;19;20611;-76
2022/04/26 03:40:39;;;;;;;14.33;11.80;;;;;5.80;93574.00;;;;7390882;19;20129;-76
2022/04/26 03:43:06;;;;;;;13.87;10.67;;;;;5.80;93576.00;;;;7389215;19;20133;-75
2022/04/26 03:45:40;;;;;;;12.50;10.27;;;;;5.90;93578.00;;;;7390265;19;20133;-75
2022/04/26 03:48:08;;;;;;;13.10;10.20;;;;;5.80;93578.00;;;;7388749;19;20144;-75
2022/04/26 03:50:36;;;;;;;12.10;9.97;;;;;5.80;93573.00;;;;7390336;19;20184;-76
2022/04/26 03:53:16;;;;;;;12.10;9.33;;;;;5.80;93572.00;;;;7389023;19;20157;-75
2022/04/26 03:55:50;;;;;;;15.07;10.33;;;;;5.80;93564.00;;;;7386325;19;20153;-75
2022/04/26 03:58:26;;;;;;;15.33;9.77;;;;;5.80;93570.00;;;;7388055;19;20157;-75
2022/04/26 04:00:54;;;;;;;17.67;10.60;;;;;5.80;93581.00;;;;7388858;19;20157;-77
2022/04/26 04:03:22;;;;;;;13.80;10.13;;;;;5.90;93583.00;;;;7388229;19;20190;-75
2022/04/26 04:05:56;;;;;;;11.70;10.27;;;;;5.80;93588.00;;;;7387209;19;20140;-75
2022/04/26 04:08:24;;;;;;;13.93;9.97;;;;;5.90;93587.00;;;;7387260;19;20248;-75
2022/04/26 04:10:51;;;;;;;11.77;10.13;;;;;5.80;93592.00;;;;7386997;19;20148;-75
2022/04/26 04:13:26;;;;;;;14.07;10.23;;;;;5.70;93589.00;;;;7389230;19;20125;-75
2022/04/26 04:15:53;;;;;;;14.30;10.57;;;;;5.80;93592.00;;;;7386998;19;20246;-76
2022/04/26 04:21:13;;;;;;;15.80;10.53;;;;;5.80;93596.00;;;;7386244;19;20200;-75
2022/04/26 04:23:41;;;;;;;17.17;10.50;;;;;5.80;93602.00;;;;7387759;19;20538;-75
2022/04/26 04:26:08;;;;;;;14.83;10.93;;;;;5.80;93608.00;;;;7386631;19;20152;-76
2022/04/26 04:28:43;;;;;;;11.93;9.40;;;;;5.80;93603.00;;;;7387465;19;20156;-76
2022/04/26 04:31:11;;;;;;;13.90;10.10;;;;;5.80;93602.00;;;;7388166;19;20149;-75
2022/04/26 04:33:39;;;;;;;14.60;10.43;;;;;5.70;93598.00;;;;7386328;19;20650;-75
2022/04/26 04:36:14;;;;;;;13.00;9.43;;;;;5.70;93592.00;;;;7386254;19;20168;-74
2022/04/26 04:38:42;;;;;;;12.13;9.53;;;;;5.70;93595.00;;;;7387636;19;20148;-76
2022/04/26 04:41:10;;;;;;;13.00;9.80;;;;;5.70;93601.00;;;;7386343;19;20133;-74
2022/04/26 04:43:44;;;;;;;19.53;11.03;;;;;5.70;93605.00;;;;7386249;19;20152;-74
2022/04/26 04:46:12;;;;;;;23.10;11.43;;;;;5.60;93603.00;;;;7387100;19;20710;-75
2022/04/26 04:48:39;;;;;;;13.60;9.47;;;;;5.60;93604.00;;;;7396135;19;20596;-75
2022/04/26 04:51:14;;;;;;;11.67;9.80;;;;;5.70;93604.00;;;;7395405;19;20623;-75
2022/04/26 04:53:47;;;;;;;13.60;9.73;;;;;5.70;93601.00;;;;7391313;19;20707;-75
2022/04/26 04:56:28;;;;;;;11.57;9.13;;;;;5.80;93608.00;;;;7393071;19;20176;-76
2022/04/26 04:58:56;;;;;;;10.77;9.10;;;;;5.80;93610.00;;;;7395148;19;20147;-75
2022/04/26 05:01:29;;;;;;;11.37;9.47;;;;;5.80;93611.00;;;;7394454;19;20627;-76
2022/04/26 05:03:57;;;;;;;14.53;10.53;;;;;5.90;93607.00;;;;7393119;19;20171;-75
2022/04/26 05:06:25;;;;;;;12.10;9.50;;;;;5.80;93602.00;;;;7393124;19;20180;-75
2022/04/26 05:08:58;;;;;;;12.27;10.00;;;;;5.80;93612.00;;;;7394159;19;20157;-76
2022/04/26 05:11:26;;;;;;;14.90;10.53;;;;;5.80;93611.00;;;;7393936;19;20148;-76
2022/04/26 05:13:54;;;;;;;14.37;10.67;;;;;5.90;93595.00;;;;7392015;19;20145;-75
2022/04/26 05:16:28;;;;;;;17.47;10.20;;;;;5.90;93591.00;;;;7393334;19;20144;-77
2022/04/26 05:18:56;;;;;;;12.90;10.30;;;;;6.10;93602.00;;;;7392551;19;20151;-75
2022/04/26 05:21:23;;;;;;;13.20;9.90;;;;;6.20;93616.00;;;;7392286;19;20152;-76
2022/04/26 05:26:43;;;;;;;13.07;10.10;;;;;6.30;93645.00;;;;7393695;19;20132;-77
2022/04/26 05:29:17;;;;;;;16.50;10.37;;;;;6.20;93635.00;;;;7393283;19;20156;-76
2022/04/26 05:31:45;;;;;;;11.43;9.50;;;;;6.40;93627.00;;;;7391808;19;20184;-76
2022/04/26 05:34:13;;;;;;;12.30;9.73;;;;;6.40;93626.00;;;;7391517;19;20153;-76
2022/04/26 05:36:47;;;;;;;10.43;9.33;;;;;6.60;93622.00;;;;7393098;19;20157;-76
2022/04/26 05:39:14;;;;;;;14.03;9.33;;;;;6.70;93619.00;;;;7390825;19;20261;-75
2022/04/26 05:41:44;;;;;;;10.43;9.10;;;;;6.70;93612.00;;;;7389994;19;20575;-76
2022/04/26 05:44:18;;;;;;;10.37;8.90;;;;;6.90;93599.00;;;;7392686;19;20152;-77
2022/04/26 05:46:46;;;;;;;11.17;8.57;;;;;6.80;93604.00;;;;7398876;19;20500;-77
2022/04/26 05:49:15;;;;;;;13.63;8.73;;;;;6.80;93618.00;;;;7400882;19;20164;-76
2022/04/26 05:51:50;;;;;;;10.67;8.60;;;;;6.90;93637.00;;;;7400368;19;20156;-78
2022/04/26 05:54:25;;;;;;;11.67;8.00;;;;;7.00;93648.00;;;;7394464;19;20161;-76
2022/04/26 05:57:06;;;;;;;9.20;7.83;;;;;6.90;93638.00;;;;7397887;19;20152;-77
2022/04/26 05:59:34;;;;;;;9.53;7.70;;;;;7.00;93638.00;;;;7395237;19;20152;-75
2022/04/26 06:02:09;;;;;;;9.00;8.03;;;;;7.00;93643.00;;;;7394997;19;20223;-76
2022/04/26 06:04:44;;;;;;;8.20;7.40;;;;;7.10;93643.00;;;;7400628;19;20148;-76
2022/04/26 06:07:19;;;;;;;7.67;6.63;;;;;7.10;93642.00;;;;7400485;19;20186;-76
2022/04/26 06:09:50;;;;;;;9.27;8.30;;;;;7.30;93645.00;;;;7398122;19;20208;-76
2022/04/26 06:12:23;;;;;;;9.00;8.07;;;;;7.30;93639.00;;;;7401362;19;20145;-78
2022/04/26 06:14:59;;;;;;;10.23;9.20;;;;;7.60;93645.00;;;;7399608;19;20192;-78
2022/04/26 06:17:28;;;;;;;14.40;10.70;;;;;7.50;93643.00;;;;7402769;19;20165;-79
2022/04/26 06:19:57;;;;;;;10.87;9.77;;;;;7.60;93648.00;;;;7404291;19;20172;-77
2022/04/26 06:22:50;;;;;;;10.17;9.07;;;;;7.40;93651.00;;;;7402276;19;20162;-78
2022/04/26 06:25:24;;;;;;;8.93;8.13;;;;;7.40;93650.00;;;;7404393;19;20155;-76
2022/04/26 06:28:00;;;;;;;13.27;10.57;;;;;7.30;93637.00;;;;7404789;19;20220;-77
2022/04/26 06:30:29;;;;;;;14.37;10.57;;;;;7.30;93643.00;;;;7404419;19;20125;-77
2022/04/26 06:32:57;;;;;;;11.37;10.17;;;;;7.40;93641.00;;;;7404690;19;20177;-78
2022/04/26 06:35:33;;;;;;;11.50;10.30;;;;;7.50;93641.00;;;;7403723;19;20139;-77
2022/04/26 06:38:04;;;;;;;11.00;9.90;;;;;7.30;93645.00;;;;7405339;19;20144;-77
2022/04/26 06:40:32;;;;;;;11.50;9.47;;;;;7.30;93657.00;;;;7403191;19;20149;-77
2022/04/26 06:43:09;;;;;;;11.47;10.37;;;;;7.60;93652.00;;;;7403349;19;20148;-77
2022/04/26 06:45:39;;;;;;;11.27;10.07;;;;;7.80;93653.00;;;;7403040;19;20172;-77
2022/04/26 06:48:09;;;;;;;12.40;10.30;;;;;7.60;93657.00;;;;7402406;19;20612;-76
2022/04/26 06:50:45;;;;;;;13.53;9.50;;;;;8.00;93649.00;;;;7401514;19;20486;-76
2022/04/26 06:53:22;;;;;;;15.80;9.67;;;;;8.20;93636.00;;;;7400844;19;20499;-76
2022/04/26 06:56:07;;;;;;;10.57;9.47;;;;;8.50;93634.00;;;;7402333;19;20568;-76
2022/04/26 06:58:39;;;;;;;10.23;8.57;;;;;8.80;93639.00;;;;7405884;19;20156;-77
2022/04/26 07:01:24;;;;;;;9.83;8.83;;;;;9.10;93635.00;;;;7402184;19;20156;-76
2022/04/26 07:04:12;;;;;;;9.90;7.97;;;;;8.90;93639.00;;;;7402061;19;20651;-77
2022/04/26 07:06:52;;;;;;;9.83;8.50;;;;;8.50;93632.00;;;;7400958;19;20160;-77
2022/04/26 07:09:25;;;;;;;9.60;8.70;;;;;8.90;93627.00;;;;7401052;19;20524;-78
2022/04/26 07:12:00;;;;;;;9.33;8.23;;;;;9.90;93617.00;;;;7401725;19;20154;-77
2022/04/26 07:14:29;;;;;;;10.53;8.87;;;;;9.90;93631.00;;;;7401165;19;20148;-77
2022/04/26 07:17:00;;;;;;;10.70;8.32;;;;;10.20;93617.00;;;;7402381;19;20144;-77
2022/04/26 07:19:35;;;;;;;8.60;7.68;;;;;9.60;93625.00;;;;7400446;19;20132;-76
2022/04/26 07:22:31;;;;;;;8.40;7.60;;;;;10.20;93633.00;;;;7397651;19;20148;-80
2022/04/26 07:25:08;;;;;;;8.83;7.93;;;;;9.70;93636.00;;;;7397008;19;20480;-78
2022/04/26 07:27:36;;;;;;;8.98;8.07;;;;;9.20;93630.00;;;;7398176;19;20152;-77
2022/04/26 07:30:09;;;;;;;9.93;8.10;;;;;8.60;93637.00;;;;7390575;19;20158;-76
2022/04/26 07:35:33;;;;;;;9.03;8.13;;;;;8.30;93643.00;;;;7391754;19;20148;-76
2022/04/26 07:38:11;;;;;;;9.70;8.70;;;;;8.30;93646.00;;;;7389102;19;20145;-76
2022/04/26 07:40:42;;;;;;;10.67;9.57;;;;;8.20;93642.00;;;;7390172;19;20509;-79
2022/04/26 07:43:28;;;;;;;9.10;8.20;;;;;8.70;93652.00;;;;7389912;19;20147;-77
2022/04/26 07:46:04;;;;;;;9.13;8.23;;;;;8.30;93648.00;;;;7388243;19;20532;-76
2022/04/26 07:48:46;;;;;;;11.30;9.10;;;;;8.30;93659.00;;;;7389882;19;20147;-78
2022/04/26 07:51:28;;;;;;;11.97;9.23;;;;;8.60;93669.00;;;;7389634;19;20636;-76
2022/04/26 07:54:23;;;;;;;12.33;10.43;;;;;8.20;93673.00;;;;7387590;19;20187;-76
2022/04/26 07:56:58;;;;;;;14.67;11.27;;;;;8.00;93690.00;;;;7388372;19;20606;-77
2022/04/26 07:59:33;;;;;;;12.27;11.07;;;;;7.70;93699.00;;;;7388007;19;20651;-75
2022/04/26 08:02:07;;;;;;;18.37;11.77;;;;;8.30;93689.00;;;;7389892;19;20631;-76
2022/04/26 08:04:47;;;;;;;14.43;12.00;;;;;8.60;93703.00;;;;7387863;19;20156;-77
2022/04/26 08:07:15;;;;;;;13.57;12.17;;;;;8.40;93698.00;;;;7389325;19;20523;-75
2022/04/26 08:09:49;;;;;;;13.83;12.33;;;;;8.40;93710.00;;;;7386621;19;20168;-76
2022/04/26 08:12:17;;;;;;;14.50;12.20;;;;;8.80;93705.00;;;;7388409;19;20765;-75
2022/04/26 08:14:45;;;;;;;13.30;11.90;;;;;8.90;93714.00;;;;7386891;19;21543;-75
2022/04/26 08:17:20;;;;;;;14.17;12.20;;;;;8.90;93706.00;;;;7386712;19;20216;-76
2022/04/26 08:19:48;;;;;;;11.73;10.63;;;;;8.90;93706.00;;;;7388617;19;20137;-74
2022/04/26 08:22:16;;;;;;;13.10;11.70;;;;;9.40;93712.00;;;;7389755;19;20153;-75
2022/04/26 08:27:38;;;;;;;11.40;10.30;;;;;9.80;93719.00;;;;7391602;19;20155;-74
2022/04/26 08:30:14;;;;;;;14.70;11.03;;;;;9.70;93728.00;;;;7390648;19;20148;-74
2022/04/26 08:32:48;;;;;;;12.00;10.70;;;;;9.90;93727.00;;;;7393475;19;20568;-74
2022/04/26 08:35:25;;;;;;;12.93;10.43;;;;;9.70;93730.00;;;;7391328;19;20159;-75
2022/04/26 08:38:13;;;;;;;13.60;9.93;;;;;10.60;93736.00;;;;7388900;19;20153;-75
2022/04/26 08:40:48;;;;;;;11.50;10.30;;;;;10.20;93743.00;;;;7384119;19;20179;-75
2022/04/26 08:43:16;;;;;;;12.73;10.18;;;;;10.20;93740.00;;;;7392798;19;20234;-77
2022/04/26 08:45:46;;;;;;;12.23;9.55;;;;;10.10;93737.00;;;;7393726;19;20144;-75
2022/04/26 08:51:11;;;;;;;11.02;9.60;;;;;10.50;93735.00;;;;7394683;19;20148;-74
2022/04/26 08:53:59;;;;;;;10.18;9.18;;;;;10.60;93740.00;;;;6895751;19;9734800;-76
2022/04/26 08:56:37;;;;;;;10.52;9.25;;;;;9.90;93743.00;;;;7392619;19;20150;-75
2022/04/26 08:59:12;;;;;;;12.65;9.35;;;;;10.20;93735.00;;;;7397794;19;21058;-75
2022/04/26 09:01:40;;;;;;;11.77;9.90;;;;;11.10;93733.00;;;;7396664;19;20603;-76
2022/04/26 09:04:16;;;;;;;10.02;8.95;;;;;12.00;93739.00;;;;7396773;19;20152;-75
2022/04/26 09:06:58;;;;;;;9.52;8.32;;;;;13.20;93732.00;;;;7394046;19;21448;-75
2022/04/26 09:09:30;;;;;;;18.48;9.15;;;;;13.70;93735.00;;;;7394892;19;20172;-75
2022/04/26 09:12:12;;;;;;;10.05;8.20;;;;;14.00;93746.00;;;;7396475;19;20156;-74
2022/04/26 09:14:48;;;;;;;11.00;7.43;;;;;14.50;93734.00;;;;7396140;19;20212;-75
2022/04/26 09:17:23;;;;;;;9.27;7.43;;;;;12.80;93746.00;;;;7394936;19;20207;-75
2022/04/26 09:19:55;;;;;;;9.48;8.20;;;;;11.70;93751.00;;;;7385185;19;20157;-74
2022/04/26 09:22:29;;;;;;;10.23;8.40;;;;;10.80;93752.00;;;;7385713;19;20156;-73
2022/04/26 09:25:08;;;;;;;8.10;7.30;;;;;10.40;93755.00;;;;7387785;19;20152;-75
2022/04/26 09:27:38;;;;;;;9.88;8.10;;;;;10.10;93757.00;;;;7387510;19;20148;-75
2022/04/26 09:30:16;;;;;;;8.88;7.80;;;;;10.10;93760.00;;;;7390050;19;20615;-74
2022/04/26 09:32:46;;;;;;;8.70;7.68;;;;;9.70;93768.00;;;;7393673;19;20169;-74
2022/04/26 09:35:21;;;;;;;10.55;8.00;;;;;10.20;93761.00;;;;7396757;19;20128;-74
2022/04/26 09:37:49;;;;;;;10.43;8.00;;;;;9.80;93758.00;;;;7395340;19;20163;-73
2022/04/26 09:40:28;;;;;;;10.10;7.77;;;;;10.20;93773.00;;;;7395121;19;20631;-74
2022/04/26 09:43:13;;;;;;;9.65;7.80;;;;;10.30;93771.00;;;;7395339;19;20124;-75
2022/04/26 09:45:57;;;;;;;10.25;7.45;;;;;10.70;93771.00;;;;7394928;19;20159;-76
2022/04/26 09:48:36;;;;;;;9.45;6.63;;;;;11.30;93767.00;;;;7393426;19;20236;-75
2022/04/26 09:51:08;;;;;;;8.68;7.05;;;;;11.30;93755.00;;;;7395272;19;20525;-76
2022/04/26 09:53:56;;;;;;;7.82;7.03;;;;;12.20;93755.00;;;;7393235;19;20225;-74
2022/04/26 09:56:32;;;;;;;7.53;6.63;;;;;12.60;93746.00;;;;7391861;19;20155;-75
2022/04/26 09:59:06;;;;;;;9.07;6.70;;;;;14.00;93737.00;;;;7395418;19;20152;-74
2022/04/26 10:01:42;;;;;;;7.75;6.28;;;;;14.00;93739.00;;;;7394943;19;20152;-75
2022/04/26 10:04:26;;;;;;;8.07;5.57;;;;;14.80;93753.00;;;;7390866;19;20149;-74
2022/04/26 10:07:10;;;;;;;5.97;5.10;;;;;14.70;93735.00;;;;7392409;19;20140;-74
2022/04/26 10:09:50;;;;;;;7.38;5.18;;;;;14.90;93744.00;;;;7388086;19;20172;-74
2022/04/26 10:12:18;;;;;;;4.85;4.45;;;;;15.50;93741.00;;;;7389883;19;20145;-74
2022/04/26 10:14:53;;;;;;;7.35;5.13;;;;;15.60;93752.00;;;;7390321;19;20148;-74
2022/04/26 10:17:22;;;;;;;8.00;5.07;;;;;13.90;93751.00;;;;7389462;19;20850;-75
2022/04/26 10:19:50;;;;;;;9.80;5.28;;;;;13.90;93736.00;;;;7392287;19;20172;-75
2022/04/26 10:22:59;;;;;;;5.57;4.95;;;;;14.60;93738.00;;;;7388677;19;20152;-74
2022/04/26 10:25:30;;;;;;;5.35;4.80;;;;;14.20;93751.00;;;;7388153;19;20148;-75
2022/04/26 10:28:23;;;;;;;5.85;4.85;;;;;13.10;93771.00;;;;7385522;19;20153;-74
2022/04/26 10:30:53;;;;;;;6.13;5.40;;;;;11.90;93766.00;;;;7385291;19;20528;-74
2022/04/26 10:33:36;;;;;;;7.55;5.63;;;;;13.00;93747.00;;;;7393042;19;20128;-75
2022/04/26 10:36:29;;;;;;;6.93;5.30;;;;;13.30;93741.00;;;;7387722;19;20156;-74
2022/04/26 10:39:12;;;;;;;7.68;5.45;;;;;14.50;93746.00;;;;7387687;19;20806;-74
2022/04/26 10:41:45;;;;;;;5.88;4.80;;;;;15.80;93736.00;;;;7388373;19;20198;-74
2022/04/26 10:44:22;;;;;;;5.65;4.70;;;;;16.10;93746.00;;;;7390535;19;20151;-75
2022/04/26 10:46:55;;;;;;;7.35;4.10;;;;;16.00;93731.00;;;;7389740;19;20149;-73
2022/04/26 10:49:35;;;;;;;7.13;4.75;;;;;16.40;93735.00;;;;7395457;19;20215;-75
2022/04/26 10:52:22;;;;;;;10.40;4.65;;;;;15.50;93748.00;;;;7395078;19;20219;-75
2022/04/26 10:55:12;;;;;;;7.90;5.05;;;;;16.10;93743.00;;;;7384664;19;20550;-73
2022/04/26 10:57:42;;;;;;;5.93;5.18;;;;;17.20;93735.00;;;;7388990;19;20167;-73
2022/04/26 11:00:20;;;;;;;7.03;5.63;;;;;15.90;93767.00;;;;7395448;19;20168;-75
2022/04/26 11:02:50;;;;;;;6.53;5.82;;;;;13.50;93793.00;;;;7396410;19;20514;-75
2022/04/26 11:05:26;;;;;;;7.35;5.70;;;;;14.00;93797.00;;;;7396073;19;20575;-74
2022/04/26 11:07:55;;;;;;;8.02;6.38;;;;;13.80;93799.00;;;;7394106;19;20875;-75
2022/04/26 11:10:25;;;;;;;8.45;6.75;;;;;13.10;93813.00;;;;7393611;19;20494;-75
2022/04/26 11:12:59;;;;;;;11.90;6.70;;;;;12.00;93823.00;;;;7394916;19;20592;-75
2022/04/26 11:15:29;;;;;;;8.35;6.40;;;;;10.80;93827.00;;;;7393866;19;20204;-75
2022/04/26 11:17:57;;;;;;;9.23;6.05;;;;;10.60;93816.00;;;;7392560;19;20794;-75
2022/04/26 11:20:36;;;;;;;7.75;6.40;;;;;10.90;93826.00;;;;7393298;19;20163;-74
2022/04/26 11:27:59;;;;;;;8.57;6.38;;;;;13.00;93792.00;;;;7391420;19;20156;-76
2022/04/26 11:28:54;;;;;;;7.13;5.78;;;;;13.80;93804.00;;;;7391422;19;20546;-76
2022/04/26 11:31:40;;;;;;;6.82;5.40;;;;;13.60;93808.00;;;;7390233;19;20484;-75
2022/04/26 11:34:08;;;;;;;5.95;4.95;;;;;14.90;93798.00;;;;7391923;19;20148;-76
2022/04/26 11:36:43;;;;;;;5.13;4.30;;;;;14.20;93823.00;;;;7390895;19;20166;-76
2022/04/26 11:39:11;;;;;;;5.72;4.07;;;;;13.70;93828.00;;;;7387525;19;20591;-74
2022/04/26 11:41:39;;;;;;;5.97;4.57;;;;;12.50;93816.00;;;;7390051;19;20148;-77
2022/04/26 11:44:14;;;;;;;6.03;4.63;;;;;13.50;93826.00;;;;7389636;19;20140;-75
2022/04/26 11:46:59;;;;;;;4.78;4.28;;;;;13.60;93825.00;;;;7388518;19;20481;-75
2022/04/26 11:49:40;;;;;;;7.53;4.32;;;;;12.70;93840.00;;;;7388936;19;20144;-75
2022/04/26 11:52:09;;;;;;;5.82;4.80;;;;;12.30;93847.00;;;;7387639;19;20156;-75
2022/04/26 11:54:49;;;;;;;4.97;4.03;;;;;12.60;93838.00;;;;7385793;19;20167;-74
2022/04/26 11:57:22;;;;;;;4.20;3.80;;;;;13.60;93853.00;;;;7384094;19;20640;-74
2022/04/26 11:59:58;;;;;;;4.00;3.50;;;;;12.30;93872.00;;;;7383496;19;20420;-75
2022/04/26 12:02:29;;;;;;;6.85;5.10;;;;;11.10;93880.00;;;;7387164;19;20601;-74
2022/04/26 12:05:07;;;;;;;8.98;6.38;;;;;10.10;93895.00;;;;7387774;19;20153;-75
2022/04/26 12:07:40;;;;;;;7.38;6.57;;;;;10.20;93891.00;;;;7386448;19;20160;-75
2022/04/26 12:10:33;;;;;;;6.45;5.75;;;;;9.00;93904.00;;;;7387344;19;20155;-75
2022/04/26 12:13:05;;;;;;;7.00;6.00;;;;;8.50;93900.00;;;;7384630;19;20320;-75
2022/04/26 12:15:39;;;;;;;8.23;6.70;;;;;8.50;93903.00;;;;7381831;19;21505;-74
2022/04/26 12:18:15;;;;;;;8.00;7.10;;;;;7.90;93909.00;;;;7376542;19;20231;-75
2022/04/26 12:20:57;;;;;;;9.67;7.40;;;;;7.70;93914.00;;;;7380120;19;20132;-74
2022/04/26 12:23:29;;;;;;;12.87;7.60;;;;;7.20;93926.00;;;;7385748;19;20136;-74
2022/04/26 12:26:09;;;;;;;9.03;8.13;;;;;7.10;93923.00;;;;7388520;19;20141;-75
2022/04/26 12:28:51;;;;;;;9.50;8.37;;;;;7.10;93930.00;;;;7385327;19;20168;-76
2022/04/26 12:31:29;;;;;;;9.80;8.63;;;;;7.00;93934.00;;;;7386525;19;20148;-75
2022/04/26 12:34:17;;;;;;;11.03;9.27;;;;;7.10;93933.00;;;;7387726;19;20166;-74
2022/04/26 12:37:02;;;;;;;10.60;8.87;;;;;7.10;93933.00;;;;7381725;19;20174;-75
2022/04/26 12:39:41;;;;;;;11.40;9.03;;;;;7.00;93937.00;;;;7388556;19;20132;-76
2022/04/26 12:42:27;;;;;;;12.50;8.13;;;;;6.20;93946.00;;;;7386241;19;20181;-75
2022/04/26 12:45:27;;;;;;;9.47;7.53;;;;;5.90;93943.00;;;;7387226;19;20144;-76
2022/04/26 12:51:25;;;;;;;11.93;6.57;;;;;5.30;93956.00;;;;7385281;19;20534;-75
2022/04/26 12:54:12;;;;;;;8.10;6.17;;;;;5.50;93954.00;;;;7387993;19;20575;-75
2022/04/26 12:57:03;;;;;;;8.03;5.87;;;;;5.60;93951.00;;;;7384305;19;20478;-76
2022/04/26 12:59:41;;;;;;;9.13;6.43;;;;;6.20;93929.00;;;;7385139;19;20144;-75
2022/04/26 13:02:09;;;;;;;5.20;4.67;;;;;6.90;93940.00;;;;7386627;19;20153;-74
2022/04/26 13:04:49;;;;;;;6.60;5.37;;;;;7.30;93951.00;;;;7387106;19;20140;-75
2022/04/26 13:07:26;;;;;;;7.40;5.33;;;;;7.20;93951.00;;;;7388065;19;20653;-77
2022/04/26 13:10:22;;;;;;;5.47;4.90;;;;;7.20;93947.00;;;;7392480;19;20184;-75
2022/04/26 13:12:58;;;;;;;6.27;5.03;;;;;6.90;93952.00;;;;7394335;19;20180;-77
2022/04/26 13:15:27;;;;;;;5.97;4.83;;;;;6.80;93949.00;;;;7388721;19;20145;-76
2022/04/26 13:17:56;;;;;;;6.27;5.50;;;;;6.70;93952.00;;;;7388215;19;20149;-75
2022/04/26 13:20:32;;;;;;;6.93;6.07;;;;;7.90;93923.00;;;;7389232;19;20670;-75
2022/04/26 13:23:09;;;;;;;6.47;5.47;;;;;9.30;93908.00;;;;7391246;19;20159;-76
2022/04/26 13:25:44;;;;;;;4.70;4.20;;;;;10.50;93919.00;;;;7390144;19;20637;-78
2022/04/26 13:28:14;;;;;;;3.83;3.33;;;;;10.70;93908.00;;;;7388140;19;20160;-77
2022/04/26 13:30:45;;;;;;;4.68;2.95;;;;;10.10;93901.00;;;;7389595;19;20146;-78
2022/04/26 13:33:19;;;;;;;3.85;2.92;;;;;10.70;93901.00;;;;7389661;19;20136;-78
2022/04/26 13:35:48;;;;;;;3.70;2.85;;;;;10.90;93891.00;;;;7390110;19;20140;-77
2022/04/26 13:38:17;;;;;;;2.72;2.33;;;;;11.20;93898.00;;;;7392278;19;20145;-77
2022/04/26 13:41:13;;;;;;;4.05;2.72;;;;;11.00;93898.00;;;;7392851;19;20223;-78
2022/04/26 13:44:06;;;;;;;7.93;2.35;;;;;10.90;93905.00;;;;7390954;19;20164;-77
2022/04/26 13:46:46;;;;;;;3.17;2.50;;;;;11.30;93901.00;;;;7392057;19;20141;-74
2022/04/26 13:49:14;;;;;;;3.65;2.85;;;;;11.80;93888.00;;;;7384878;19;20140;-76
2022/04/26 13:51:52;;;;;;;3.85;3.55;;;;;11.90;93888.00;;;;7384018;19;20152;-77
2022/04/26 13:54:27;;;;;;;3.92;3.63;;;;;12.60;93878.00;;;;7379936;19;20216;-76
2022/04/26 13:57:11;;;;;;;5.68;4.43;;;;;13.20;93878.00;;;;7381326;19;20162;-75
2022/04/26 13:59:38;;;;;;;4.57;3.90;;;;;13.60;93874.00;;;;7381869;19;20187;-77
2022/04/26 14:02:18;;;;;;;3.47;3.13;;;;;13.80;93883.00;;;;7385949;19;20771;-77
2022/04/26 14:04:50;;;;;;;4.43;3.50;;;;;13.50;93877.00;;;;7384871;19;20162;-78
2022/04/26 14:07:36;;;;;;;3.65;3.35;;;;;14.30;93875.00;;;;7381446;19;20160;-76
2022/04/26 14:10:15;;;;;;;3.95;3.60;;;;;14.20;93869.00;;;;7385184;19;20176;-76
2022/04/26 14:13:13;;;;;;;3.10;2.80;;;;;12.90;93891.00;;;;7384410;19;20152;-77
2022/04/26 14:22:03;;;;;;;3.08;2.80;;;;;14.60;93878.00;;;;7383811;19;20160;-76
2022/04/26 14:25:15;;;;;;;2.70;2.50;;;;;15.10;93884.00;;;;7383761;19;20171;-77
2022/04/26 14:28:06;;;;;;;2.90;2.67;;;;;13.40;93883.00;;;;7381881;19;20963;-76
2022/04/26 14:31:05;;;;;;;2.83;2.63;;;;;14.30;93881.00;;;;7379449;19;20144;-76
2022/04/26 14:41:23;;;;;;;3.58;2.63;;;;;14.10;93883.00;;;;7381358;19;20216;-73
2022/04/26 14:43:57;;;;;;;4.43;2.88;;;;;14.80;93890.00;;;;7383223;19;20207;-75
2022/04/26 14:46:29;;;;;;;3.42;2.33;;;;;14.50;93906.00;;;;7385894;19;20757;-75
2022/04/26 14:49:03;;;;;;;4.35;3.00;;;;;13.50;93910.00;;;;7385330;19;20140;-75
2022/04/26 14:51:38;;;;;;;4.05;2.83;;;;;13.40;93915.00;;;;7384379;19;20224;-75
2022/04/26 14:54:13;;;;;;;4.00;2.42;;;;;12.50;93923.00;;;;7383728;19;20240;-75
2022/04/26 14:56:54;;;;;;;4.60;2.80;;;;;12.20;93929.00;;;;7381920;19;20212;-74
2022/04/26 14:59:23;;;;;;;3.20;2.90;;;;;11.90;93929.00;;;;7382904;19;20545;-75
2022/04/26 15:01:58;;;;;;;4.20;3.22;;;;;11.20;93936.00;;;;7381894;19;20538;-74
2022/04/26 15:04:37;;;;;;;3.30;3.00;;;;;11.20;93941.00;;;;7383673;19;20148;-75
2022/04/26 15:07:17;;;;;;;3.45;3.15;;;;;10.90;93939.00;;;;7381931;19;20163;-74
2022/04/26 15:09:52;;;;;;;3.10;2.80;;;;;10.70;93933.00;;;;7383701;19;21401;-75
2022/04/26 15:18:27;;;;;;;3.05;2.70;;;;;10.90;93933.00;;;;7379493;19;20189;-74
2022/04/26 15:20:56;;;;;;;3.30;3.00;;;;;10.30;93937.00;;;;7386610;19;20153;-75
2022/04/26 15:23:39;;;;;;;3.28;2.97;;;;;10.00;93940.00;;;;7383782;19;20152;-74
2022/04/26 15:26:09;;;;;;;3.40;2.95;;;;;10.10;93942.00;;;;7383558;19;20468;-74
2022/04/26 15:28:46;;;;;;;4.68;2.83;;;;;9.70;93946.00;;;;7386499;19;20928;-75
2022/04/26 15:31:23;;;;;;;3.40;2.50;;;;;10.60;93938.00;;;;7382139;19;20158;-74
2022/04/26 15:34:04;;;;;;;2.95;2.70;;;;;11.40;93943.00;;;;7383743;19;20201;-75
2022/04/26 15:36:41;;;;;;;2.88;2.55;;;;;12.00;93937.00;;;;7384983;19;20141;-76
2022/04/26 15:39:16;;;;;;;2.88;2.50;;;;;11.60;93959.00;;;;7385754;19;20551;-75
2022/04/26 15:41:44;;;;;;;3.45;2.90;;;;;10.90;93964.00;;;;7385553;19;20650;-76
2022/04/26 15:44:19;;;;;;;4.13;3.35;;;;;10.80;93970.00;;;;7381019;19;20152;-74
2022/04/26 15:47:00;;;;;;;3.60;3.30;;;;;10.10;93964.00;;;;7379586;19;20176;-77
2022/04/26 15:49:28;;;;;;;4.78;3.22;;;;;10.90;93964.00;;;;7382786;19;20137;-74
2022/04/26 15:52:07;;;;;;;3.17;2.97;;;;;10.90;93966.00;;;;7381705;19;20150;-76
2022/04/26 15:54:48;;;;;;;3.10;2.80;;;;;11.30;93960.00;;;;7380185;19;20196;-74
2022/04/26 15:57:26;;;;;;;2.97;2.50;;;;;11.60;93952.00;;;;7381449;19;20152;-76
2022/04/26 15:59:54;;;;;;;3.65;2.88;;;;;12.10;93960.00;;;;7384402;19;20188;-76
2022/04/26 16:02:28;;;;;;;3.08;2.78;;;;;11.40;93963.00;;;;7381072;19;20155;-75
2022/04/26 16:05:04;;;;;;;3.40;3.10;;;;;10.70;93965.00;;;;7383037;19;20174;-75
2022/04/26 16:07:34;;;;;;;4.30;3.15;;;;;11.00;93959.00;;;;7383433;19;20523;-75
2022/04/26 16:21:25;;;;;;;4.38;3.70;;;;;10.30;93979.00;;;;7381589;19;20220;-76
2022/04/26 16:24:01;;;;;;;3.88;3.28;;;;;10.10;93988.00;;;;7380448;19;20148;-76
2022/04/26 16:26:34;;;;;;;3.50;3.20;;;;;10.20;93981.00;;;;7381947;19;20149;-75
2022/04/26 16:29:09;;;;;;;3.85;3.38;;;;;10.50;93981.00;;;;7387002;19;20165;-75
2022/04/26 16:31:38;;;;;;;4.13;3.30;;;;;10.40;93985.00;;;;7384351;19;20133;-76
2022/04/26 16:34:06;;;;;;;3.83;3.22;;;;;9.80;93988.00;;;;7382687;19;20145;-77
2022/04/26 16:36:42;;;;;;;3.93;2.83;;;;;9.60;93987.00;;;;7380872;19;20695;-77
2022/04/26 16:39:09;;;;;;;3.20;2.90;;;;;9.50;93981.00;;;;7379410;19;20129;-77
2022/04/26 16:41:40;;;;;;;5.03;3.23;;;;;9.40;93985.00;;;;7380043;19;20155;-77
2022/04/26 16:44:15;;;;;;;4.93;3.40;;;;;9.00;93984.00;;;;7387823;19;20622;-76
2022/04/26 16:46:44;;;;;;;4.03;3.60;;;;;9.00;93993.00;;;;7388468;19;20152;-75
2022/04/26 16:49:12;;;;;;;5.40;3.70;;;;;8.80;93996.00;;;;7384413;19;20141;-75
2022/04/26 16:51:46;;;;;;;4.70;3.97;;;;;8.60;93997.00;;;;7384606;19;20504;-75
2022/04/26 16:54:27;;;;;;;4.53;3.90;;;;;8.40;93997.00;;;;7386647;19;20144;-75
2022/04/26 16:57:04;;;;;;;5.10;4.20;;;;;8.20;94000.00;;;;7386746;19;20155;-74
2022/04/26 16:59:32;;;;;;;5.50;4.03;;;;;8.10;94005.00;;;;7385099;19;20161;-75
2022/04/26 17:02:00;;;;;;;5.00;4.30;;;;;7.90;94011.00;;;;7382850;19;21218;-74
2022/04/26 17:04:35;;;;;;;4.33;3.93;;;;;7.80;94006.00;;;;7386195;19;20132;-75
2022/04/26 17:07:04;;;;;;;5.00;4.33;;;;;7.70;94015.00;;;;7385202;19;20589;-73
2022/04/26 17:09:34;;;;;;;4.70;4.30;;;;;7.90;94015.00;;;;7382098;19;20168;-74
2022/04/26 17:12:12;;;;;;;4.63;3.80;;;;;7.90;94018.00;;;;7382982;19;20654;-75
2022/04/26 17:14:41;;;;;;;5.47;4.87;;;;;8.00;94019.00;;;;7384261;19;20161;-76
2022/04/26 17:17:17;;;;;;;5.77;5.03;;;;;7.80;94033.00;;;;7383209;19;20151;-76
2022/04/26 17:19:45;;;;;;;5.20;4.70;;;;;7.70;94031.00;;;;7384588;19;20639;-75
2022/04/26 17:22:13;;;;;;;4.70;4.30;;;;;7.70;94033.00;;;;7382676;19;20848;-75
2022/04/26 17:27:52;;;;;;;2.23;2.03;;;;;6.40;94050.00;;;;7381837;19;20152;-76
2022/04/26 17:30:26;;;;;;;2.67;2.37;;;;;6.00;94060.00;;;;7384604;19;20145;-75